createdAt,value
2018-02-11T00:00:08.760Z,34.53
2018-02-11T00:02:38.082Z,33.70
2018-02-11T00:05:08.027Z,34.95
2018-02-11T00:07:37.935Z,32.35
2018-02-11T00:10:07.776Z,31.87
2018-02-11T00:12:37.345Z,32.78
2018-02-11T00:15:07.219Z,33.50
2018-02-11T00:17:37.107Z,31.35
2018-02-11T00:20:06.930Z,31.85
2018-02-11T00:22:36.783Z,31.52
2018-02-11T00:25:07.441Z,31.12
2018-02-11T00:27:37.292Z,30.70
2018-02-11T00:30:07.225Z,32.00
2018-02-11T00:32:37.043Z,33.40
2018-02-11T00:35:06.947Z,33.20
2018-02-11T00:37:43.152Z,31.75
2018-02-11T00:40:13.052Z,33.45
2018-02-11T00:42:43.644Z,32.92
2018-02-11T00:45:13.571Z,32.13
2018-02-11T00:47:43.911Z,32.08
2018-02-11T00:50:13.841Z,31.75
2018-02-11T00:52:44.456Z,31.65
2018-02-11T00:55:14.316Z,29.95
2018-02-11T00:57:44.163Z,32.00
2018-02-11T01:00:13.852Z,31.48
2018-02-11T01:02:43.746Z,32.58
2018-02-11T01:05:13.650Z,31.75
2018-02-11T01:07:43.544Z,31.87
2018-02-11T01:10:14.195Z,33.65
2018-02-11T01:12:44.016Z,32.35
2018-02-11T01:15:14.652Z,33.67
2018-02-11T01:17:44.221Z,31.95
2018-02-11T01:20:14.088Z,31.00
2018-02-11T01:22:44.057Z,30.25
2018-02-11T01:25:13.934Z,31.10
2018-02-11T01:27:43.494Z,31.50
2018-02-11T01:30:13.395Z,30.65
2018-02-11T01:32:43.354Z,31.05
2018-02-11T01:35:13.216Z,30.15
2018-02-11T01:37:43.097Z,30.80
2018-02-11T01:40:13.698Z,32.63
2018-02-11T01:42:43.645Z,33.38
2018-02-11T01:45:14.369Z,32.65
2018-02-11T01:47:44.248Z,33.38
2018-02-11T01:50:18.251Z,32.05
2018-02-11T01:52:48.853Z,30.02
2018-02-11T01:55:18.753Z,31.42
2018-02-11T01:57:48.625Z,32.42
2018-02-11T02:00:19.217Z,30.65
2018-02-11T02:02:49.564Z,31.70
2018-02-11T02:05:20.151Z,30.15
2018-02-11T02:07:50.023Z,30.45
2018-02-11T02:10:20.633Z,31.33
2018-02-11T02:12:50.319Z,33.58
2018-02-11T02:15:20.177Z,30.48
2018-02-11T02:17:50.780Z,31.40
2018-02-11T02:20:20.641Z,32.45
2018-02-11T02:22:50.487Z,32.10
2018-02-11T02:25:20.385Z,31.67
2018-02-11T02:27:50.232Z,32.25
2018-02-11T02:30:20.104Z,31.42
2018-02-11T02:32:49.953Z,33.35
2018-02-11T02:35:19.835Z,31.55
2018-02-11T02:37:49.695Z,33.10
2018-02-11T02:40:19.575Z,31.70
2018-02-11T02:42:49.499Z,31.67
2018-02-11T02:45:19.343Z,31.55
2018-02-11T02:47:49.213Z,30.05
2018-02-11T02:50:19.044Z,30.25
2018-02-11T02:52:48.923Z,33.33
2018-02-11T02:55:18.798Z,30.30
2018-02-11T02:57:48.680Z,34.13
2018-02-11T03:00:18.546Z,33.13
2018-02-11T03:02:48.177Z,32.28
2018-02-11T03:05:17.999Z,32.00
2018-02-11T03:07:47.879Z,33.90
2018-02-11T03:10:18.526Z,32.00
2018-02-11T03:12:48.352Z,31.42
2018-02-11T03:15:18.205Z,33.30
2018-02-11T03:17:48.049Z,34.22
2018-02-11T03:20:18.702Z,31.70
2018-02-11T03:22:49.398Z,31.27
2018-02-11T03:25:19.252Z,32.03
2018-02-11T03:27:49.130Z,31.37
2018-02-11T03:30:18.980Z,29.80
2018-02-11T03:32:49.548Z,31.10
2018-02-11T03:35:19.866Z,32.15
2018-02-11T03:37:49.719Z,32.40
2018-02-11T03:40:19.272Z,31.37
2018-02-11T03:42:49.204Z,30.40
2018-02-11T03:45:19.041Z,31.37
2018-02-11T03:47:48.919Z,30.92
2018-02-11T03:50:18.824Z,29.87
2018-02-11T03:52:49.444Z,31.52
2018-02-11T03:55:19.298Z,30.33
2018-02-11T03:57:49.133Z,32.53
2018-02-11T04:00:18.728Z,32.45
2018-02-11T04:02:48.538Z,33.85
2018-02-11T04:05:19.143Z,31.45
2018-02-11T04:07:49.747Z,32.03
2018-02-11T04:10:19.600Z,32.33
2018-02-11T04:12:49.476Z,30.52
2018-02-11T04:15:19.898Z,32.58
2018-02-11T04:17:49.770Z,33.00
2018-02-11T04:20:19.620Z,32.83
2018-02-11T04:22:50.249Z,29.42
2018-02-11T04:25:20.863Z,30.73
2018-02-11T04:27:50.766Z,31.58
2018-02-11T04:30:20.591Z,31.65
2018-02-11T04:32:50.591Z,33.05
2018-02-11T04:35:20.429Z,32.95
2018-02-11T04:37:50.319Z,32.65
2018-02-11T04:40:20.172Z,33.05
2018-02-11T04:42:50.819Z,33.05
2018-02-11T04:45:20.688Z,33.85
2018-02-11T04:47:50.545Z,31.67
2018-02-11T04:50:20.061Z,34.10
2018-02-11T04:52:49.941Z,33.13
2018-02-11T04:55:20.524Z,31.95
2018-02-11T04:57:50.395Z,32.50
2018-02-11T05:00:21.025Z,32.80
2018-02-11T05:02:50.984Z,31.05
2018-02-11T05:05:20.835Z,31.77
2018-02-11T05:07:50.681Z,31.67
2018-02-11T05:10:20.611Z,28.62
2018-02-11T05:12:50.488Z,34.00
2018-02-11T05:15:20.836Z,33.28
2018-02-11T05:17:50.670Z,32.00
2018-02-11T05:20:20.547Z,31.85
2018-02-11T05:22:51.164Z,34.28
2018-02-11T05:25:21.063Z,31.37
2018-02-11T05:27:50.921Z,31.12
2018-02-11T05:30:21.569Z,31.25
2018-02-11T05:32:51.455Z,30.58
2018-02-11T05:35:22.119Z,30.73
2018-02-11T05:37:52.167Z,30.75
2018-02-11T05:40:22.067Z,32.70
2018-02-11T05:42:51.923Z,29.85
2018-02-11T05:45:22.628Z,31.10
2018-02-11T05:47:52.461Z,29.00
2018-02-11T05:50:22.352Z,32.10
2018-02-11T05:52:52.201Z,31.33
2018-02-11T05:55:22.115Z,30.65
2018-02-11T05:57:52.030Z,32.15
2018-02-11T06:00:21.875Z,28.50
2018-02-11T06:02:51.731Z,31.37
2018-02-11T06:05:21.586Z,30.80
2018-02-11T06:07:51.477Z,28.65
2018-02-11T06:10:21.331Z,28.92
2018-02-11T06:12:51.203Z,34.70
2018-02-11T06:15:21.078Z,27.80
2018-02-11T06:17:50.928Z,30.35
2018-02-11T06:20:20.830Z,20.70
2018-02-11T06:22:50.680Z,31.55
2018-02-11T06:25:21.354Z,26.55
2018-02-11T06:27:51.227Z,29.25
2018-02-11T06:30:21.899Z,37.38
2018-02-11T06:32:51.781Z,25.73
2018-02-11T06:35:22.514Z,28.90
2018-02-11T06:37:53.112Z,27.60
2018-02-11T06:40:23.104Z,26.37
2018-02-11T06:42:52.768Z,27.95
2018-02-11T06:45:23.440Z,24.23
2018-02-11T06:47:53.400Z,28.00
2018-02-11T06:50:23.272Z,24.60
2018-02-11T06:52:53.096Z,28.08
2018-02-11T06:55:23.184Z,24.55
2018-02-11T06:57:53.031Z,26.52
2018-02-11T07:00:23.020Z,26.05
2018-02-11T07:02:53.783Z,26.10
2018-02-11T07:05:23.620Z,26.20
2018-02-11T07:07:53.455Z,26.60
2018-02-11T07:10:24.082Z,25.58
2018-02-11T07:12:53.928Z,25.50
2018-02-11T07:15:23.547Z,20.85
2018-02-11T07:17:53.418Z,21.23
2018-02-11T07:20:22.949Z,25.33
2018-02-11T07:22:52.569Z,23.98
2018-02-11T07:25:22.423Z,21.90
2018-02-11T07:27:52.122Z,22.27
2018-02-11T07:30:21.948Z,20.90
2018-02-11T07:32:51.928Z,21.48
2018-02-11T07:35:21.841Z,21.45
2018-02-11T07:37:51.703Z,18.17
2018-02-11T07:40:21.540Z,19.15
2018-02-11T07:42:51.146Z,20.15
2018-02-11T07:45:21.736Z,19.67
2018-02-11T07:47:51.621Z,20.02
2018-02-11T07:50:21.462Z,14.25
2018-02-11T07:52:51.356Z,17.80
2018-02-11T07:55:21.184Z,15.27
2018-02-11T07:57:51.056Z,21.30
2018-02-11T08:00:21.680Z,14.18
2018-02-11T08:02:52.271Z,16.02
2018-02-11T08:05:22.298Z,14.20
2018-02-11T08:07:52.259Z,15.75
2018-02-11T08:10:23.171Z,12.98
2018-02-11T08:12:53.068Z,15.65
2018-02-11T08:15:22.982Z,16.65
2018-02-11T08:17:52.847Z,11.45
2018-02-11T08:20:22.757Z,18.00
2018-02-11T08:22:52.341Z,14.50
2018-02-11T08:25:22.300Z,15.50
2018-02-11T08:27:52.120Z,13.40
2018-02-11T08:30:22.126Z,14.35
2018-02-11T08:32:52.003Z,14.93
2018-02-11T08:35:21.872Z,13.85
2018-02-11T08:37:51.738Z,15.43
2018-02-11T08:40:21.790Z,13.32
2018-02-11T08:42:51.815Z,13.10
2018-02-11T08:45:21.695Z,14.40
2018-02-11T08:47:51.875Z,14.48
2018-02-11T08:50:21.772Z,13.60
2018-02-11T08:52:51.773Z,11.75
2018-02-11T08:55:21.752Z,13.70
2018-02-11T08:57:51.707Z,12.52
2018-02-11T09:00:21.608Z,12.37
2018-02-11T09:02:51.471Z,12.20
2018-02-11T09:05:21.987Z,13.18
2018-02-11T09:07:51.885Z,14.35
2018-02-11T09:10:21.724Z,13.77
2018-02-11T09:12:51.811Z,12.57
2018-02-11T09:15:21.689Z,12.43
2018-02-11T09:17:51.847Z,13.10
2018-02-11T09:20:21.867Z,12.50
2018-02-11T09:22:51.792Z,9.38
2018-02-11T09:25:21.670Z,10.13
2018-02-11T09:27:52.308Z,11.40
2018-02-11T09:30:22.345Z,11.95
2018-02-11T09:32:52.520Z,11.82
2018-02-11T09:35:22.589Z,9.00
2018-02-11T09:37:52.400Z,9.63
2018-02-11T09:40:22.378Z,10.45
2018-02-11T09:42:53.008Z,8.65
2018-02-11T09:45:22.824Z,8.48
2018-02-11T09:47:52.704Z,9.93
2018-02-11T09:50:22.547Z,7.60
2018-02-11T09:52:53.246Z,10.50
2018-02-11T09:55:23.238Z,9.82
2018-02-11T09:57:53.099Z,9.15
2018-02-11T10:00:22.733Z,7.60
2018-02-11T10:02:53.347Z,10.40
2018-02-11T10:05:23.319Z,8.48
2018-02-11T10:07:53.620Z,9.15
2018-02-11T10:10:23.609Z,8.63
2018-02-11T10:12:53.459Z,8.18
2018-02-11T10:15:24.096Z,7.43
2018-02-11T10:17:53.948Z,9.93
2018-02-11T10:20:23.925Z,7.75
2018-02-11T10:22:53.802Z,9.02
2018-02-11T10:25:23.653Z,8.45
2018-02-11T10:27:53.669Z,8.75
2018-02-11T10:30:23.497Z,7.47
2018-02-11T10:32:53.344Z,8.77
2018-02-11T10:35:23.193Z,6.75
2018-02-11T10:37:53.812Z,7.93
2018-02-11T10:40:24.783Z,7.75
2018-02-11T10:42:54.635Z,7.55
2018-02-11T10:45:24.812Z,7.10
2018-02-11T10:47:54.749Z,8.98
2018-02-11T10:50:24.434Z,8.60
2018-02-11T10:52:54.479Z,8.70
2018-02-11T10:55:24.343Z,6.20
2018-02-11T10:57:54.212Z,7.82
2018-02-11T11:00:23.913Z,7.87
2018-02-11T11:02:53.750Z,7.43
2018-02-11T11:05:24.012Z,6.05
2018-02-11T11:07:54.685Z,7.93
2018-02-11T11:10:24.552Z,8.55
2018-02-11T11:12:55.212Z,7.37
2018-02-11T11:15:25.085Z,7.87
2018-02-11T11:17:54.955Z,8.02
2018-02-11T11:20:24.806Z,6.53
2018-02-11T11:22:54.699Z,7.07
2018-02-11T11:25:24.591Z,8.55
2018-02-11T11:27:54.468Z,8.43
2018-02-11T11:30:25.110Z,8.20
2018-02-11T11:32:56.440Z,8.25
2018-02-11T11:35:26.347Z,8.30
2018-02-11T11:37:56.328Z,6.25
2018-02-11T11:40:27.099Z,7.78
2018-02-11T11:42:57.067Z,8.43
2018-02-11T11:45:26.933Z,8.20
2018-02-11T11:47:58.150Z,8.52
2018-02-11T11:50:28.076Z,8.77
2018-02-11T11:52:57.953Z,9.57
2018-02-11T11:55:27.874Z,10.07
2018-02-11T11:57:57.751Z,8.60
2018-02-11T12:00:27.643Z,8.70
2018-02-11T12:02:57.561Z,9.68
2018-02-11T12:05:27.452Z,8.48
2018-02-11T12:07:59.131Z,9.48
2018-02-11T12:10:30.321Z,10.00
2018-02-11T12:13:00.287Z,7.37
2018-02-11T12:15:30.161Z,7.85
2018-02-11T12:18:00.042Z,8.73
2018-02-11T12:20:30.750Z,9.13
2018-02-11T12:23:00.624Z,8.50
2018-02-11T12:25:30.447Z,8.35
2018-02-11T12:28:00.325Z,7.62
2018-02-11T12:30:31.058Z,7.20
2018-02-11T12:33:01.675Z,6.70
2018-02-11T12:35:31.540Z,8.35
2018-02-11T12:38:01.380Z,8.48
2018-02-11T12:40:31.255Z,8.13
2018-02-11T12:43:01.118Z,9.02
2018-02-11T12:45:31.403Z,7.57
2018-02-11T12:48:01.227Z,7.55
2018-02-11T12:50:31.119Z,5.72
2018-02-11T12:53:02.506Z,9.18
2018-02-11T12:55:32.361Z,6.70
2018-02-11T12:58:02.670Z,7.55
2018-02-11T13:00:32.491Z,9.80
2018-02-11T13:03:02.390Z,7.45
2018-02-11T13:05:32.254Z,9.35
2018-02-11T13:08:02.096Z,8.85
2018-02-11T13:10:31.989Z,9.85
2018-02-11T13:13:01.840Z,10.25
2018-02-11T13:15:31.718Z,11.40
2018-02-11T13:18:01.596Z,8.55
2018-02-11T13:20:32.307Z,10.05
2018-02-11T13:23:02.161Z,11.02
2018-02-11T13:25:32.094Z,10.38
2018-02-11T13:28:01.925Z,8.77
2018-02-11T13:30:31.780Z,9.40
2018-02-11T13:33:01.660Z,8.20
2018-02-11T13:35:31.539Z,9.65
2018-02-11T13:38:01.883Z,9.27
2018-02-11T13:40:31.735Z,9.98
2018-02-11T13:43:01.626Z,11.07
2018-02-11T13:45:31.515Z,7.37
2018-02-11T13:48:00.708Z,9.90
2018-02-11T13:50:30.552Z,10.45
2018-02-11T13:53:00.553Z,10.02
2018-02-11T13:55:30.379Z,11.48
2018-02-11T13:58:00.235Z,10.55
2018-02-11T14:00:30.902Z,10.50
2018-02-11T14:03:00.918Z,11.88
2018-02-11T14:05:30.768Z,11.15
2018-02-11T14:08:00.625Z,9.48
2018-02-11T14:10:31.211Z,9.48
2018-02-11T14:13:01.124Z,10.38
2018-02-11T14:15:30.984Z,9.93
2018-02-11T14:18:02.381Z,12.93
2018-02-11T14:20:32.235Z,13.32
2018-02-11T14:23:02.935Z,12.20
2018-02-11T14:25:32.923Z,13.43
2018-02-11T14:28:04.989Z,14.77
2018-02-11T14:30:34.904Z,13.80
2018-02-11T14:33:04.763Z,13.73
2018-02-11T14:35:34.756Z,10.63
2018-02-11T14:38:09.549Z,15.43
2018-02-11T14:40:39.446Z,13.93
2018-02-11T14:43:09.367Z,14.90
2018-02-11T14:45:42.251Z,12.07
2018-02-11T14:48:12.138Z,11.82
2018-02-11T14:50:42.214Z,16.48
2018-02-11T14:53:12.072Z,12.30
2018-02-11T14:55:41.903Z,16.15
2018-02-11T14:58:11.857Z,15.65
2018-02-11T15:00:41.734Z,10.68
2018-02-11T15:03:11.737Z,15.95
2018-02-11T15:05:41.581Z,14.85
2018-02-11T15:08:12.225Z,15.50
2018-02-11T15:10:42.401Z,16.05
2018-02-11T15:13:12.292Z,16.60
2018-02-11T15:15:42.317Z,12.85
2018-02-11T15:18:12.200Z,17.17
2018-02-11T15:20:42.059Z,15.27
2018-02-11T15:23:11.872Z,14.15
2018-02-11T15:25:42.373Z,15.10
2018-02-11T15:28:13.103Z,15.75
2018-02-11T15:30:43.963Z,14.87
2018-02-11T15:33:14.776Z,28.62
2018-02-11T15:35:44.676Z,25.15
2018-02-11T15:38:15.251Z,14.60
2018-02-11T15:40:45.247Z,14.43
2018-02-11T15:43:15.880Z,13.90
2018-02-11T15:45:45.737Z,15.48
2018-02-11T15:48:15.626Z,15.73
2018-02-11T15:50:46.158Z,14.00
2018-02-11T15:53:17.029Z,15.70
2018-02-11T15:55:48.515Z,14.35
2018-02-11T15:58:18.531Z,13.52
2018-02-11T16:00:49.292Z,12.80
2018-02-11T16:03:19.195Z,13.50
2018-02-11T16:05:49.554Z,13.65
2018-02-11T16:08:20.955Z,12.48
2018-02-11T16:10:51.591Z,13.60
2018-02-11T16:13:21.801Z,14.45
2018-02-11T16:15:52.221Z,12.77
2018-02-11T16:18:22.091Z,10.98
2018-02-11T16:20:51.983Z,12.15
2018-02-11T16:23:24.823Z,13.07
2018-02-11T16:25:55.184Z,11.02
2018-02-11T16:28:25.052Z,10.80
2018-02-11T16:30:55.666Z,11.23
2018-02-11T16:33:25.599Z,12.10
2018-02-11T16:35:55.553Z,12.35
2018-02-11T16:38:25.529Z,11.40
2018-02-11T16:40:55.484Z,12.75
2018-02-11T16:43:25.339Z,10.73
2018-02-11T16:45:55.933Z,9.85
2018-02-11T16:48:26.336Z,10.85
2018-02-11T16:50:56.967Z,11.85
2018-02-11T16:53:27.552Z,9.00
2018-02-11T16:55:57.426Z,11.93
2018-02-11T16:58:27.310Z,10.13
2018-02-11T17:00:57.963Z,11.25
2018-02-11T17:03:27.940Z,10.48
2018-02-11T17:05:59.917Z,10.15
2018-02-11T17:08:29.811Z,10.50
2018-02-11T17:10:59.677Z,11.63
2018-02-11T17:13:29.565Z,10.77
2018-02-11T17:15:59.458Z,9.35
2018-02-11T17:18:29.577Z,9.25
2018-02-11T17:20:59.485Z,9.93
2018-02-11T17:23:29.019Z,10.57
2018-02-11T17:25:58.898Z,9.05
2018-02-11T17:28:28.759Z,10.57
2018-02-11T17:30:59.440Z,10.23
2018-02-11T17:33:30.645Z,9.60
2018-02-11T17:36:01.582Z,9.18
2018-02-11T17:38:31.326Z,10.18
2018-02-11T17:41:01.275Z,10.75
2018-02-11T17:43:31.363Z,9.52
2018-02-11T17:46:01.465Z,9.45
2018-02-11T17:48:31.305Z,9.45
2018-02-11T17:51:01.245Z,8.70
2018-02-11T17:53:31.080Z,8.98
2018-02-11T17:56:00.974Z,9.57
2018-02-11T17:58:30.987Z,8.80
2018-02-11T18:01:00.883Z,7.68
2018-02-11T18:03:30.742Z,7.53
2018-02-11T18:06:00.609Z,8.68
2018-02-11T18:08:30.439Z,7.97
2018-02-11T18:11:00.366Z,8.30
2018-02-11T18:13:30.500Z,9.05
2018-02-11T18:16:00.388Z,8.70
2018-02-11T18:18:30.292Z,8.23
2018-02-11T18:21:00.318Z,24.52
2018-02-11T18:23:30.223Z,8.63
2018-02-11T18:26:00.128Z,8.00
2018-02-11T18:28:29.983Z,7.47
2018-02-11T18:30:59.880Z,7.12
2018-02-11T18:33:29.741Z,8.20
2018-02-11T18:35:59.611Z,7.82
2018-02-11T18:38:29.280Z,8.32
2018-02-11T18:40:59.146Z,7.78
2018-02-11T18:43:29.001Z,8.68
2018-02-11T18:45:58.870Z,7.97
2018-02-11T18:48:28.715Z,8.15
2018-02-11T18:50:58.575Z,8.23
2018-02-11T18:53:28.476Z,6.95
2018-02-11T18:55:58.371Z,7.72
2018-02-11T18:58:29.023Z,6.72
2018-02-11T19:00:59.023Z,7.78
2018-02-11T19:03:30.390Z,6.70
2018-02-11T19:06:00.272Z,6.53
2018-02-11T19:08:30.108Z,8.20
2018-02-11T19:11:01.435Z,7.12
2018-02-11T19:13:31.295Z,7.25
2018-02-11T19:16:01.234Z,7.35
2018-02-11T19:18:31.058Z,6.68
2018-02-11T19:21:00.963Z,6.28
2018-02-11T19:23:30.845Z,7.12
2018-02-11T19:26:00.712Z,7.87
2018-02-11T19:28:30.571Z,7.28
2018-02-11T19:31:00.446Z,7.85
2018-02-11T19:33:31.117Z,6.80
2018-02-11T19:36:01.076Z,6.80
2018-02-11T19:38:30.951Z,7.50
2018-02-11T19:41:00.917Z,6.75
2018-02-11T19:43:30.781Z,6.60
2018-02-11T19:46:00.675Z,6.90
2018-02-11T19:48:31.281Z,6.97
2018-02-11T19:51:01.173Z,6.75
2018-02-11T19:53:30.979Z,7.20
2018-02-11T19:56:00.828Z,4.75
2018-02-11T19:58:30.705Z,6.78
2018-02-11T20:01:00.940Z,7.35
2018-02-11T20:03:31.089Z,6.70
2018-02-11T20:06:00.994Z,6.75
2018-02-11T20:08:30.856Z,6.60
2018-02-11T20:11:00.726Z,7.65
2018-02-11T20:13:30.637Z,7.62
2018-02-11T20:16:00.523Z,6.40
2018-02-11T20:18:30.352Z,6.50
2018-02-11T20:21:00.955Z,6.50
2018-02-11T20:23:31.640Z,7.28
2018-02-11T20:26:01.546Z,6.68
2018-02-11T20:28:31.584Z,6.78
2018-02-11T20:31:03.175Z,6.18
2018-02-11T20:33:33.233Z,6.75
2018-02-11T20:36:03.098Z,6.28
2018-02-11T20:38:32.913Z,6.37
2018-02-11T20:41:03.756Z,7.05
2018-02-11T20:43:33.647Z,6.30
2018-02-11T20:46:03.467Z,6.70
2018-02-11T20:48:33.345Z,6.68
2018-02-11T20:51:03.174Z,6.43
2018-02-11T20:53:33.074Z,6.85
2018-02-11T20:56:02.905Z,7.40
2018-02-11T20:58:33.564Z,7.03
2018-02-11T21:01:03.453Z,6.00
2018-02-11T21:03:34.078Z,7.10
2018-02-11T21:06:03.936Z,7.40
2018-02-11T21:08:33.812Z,6.95
2018-02-11T21:11:04.436Z,6.75
2018-02-11T21:13:34.003Z,6.78
2018-02-11T21:16:03.887Z,8.85
2018-02-11T21:18:33.723Z,8.35
2018-02-11T21:21:03.656Z,8.60
2018-02-11T21:23:33.531Z,7.70
2018-02-11T21:26:03.428Z,8.30
2018-02-11T21:28:33.999Z,6.90
2018-02-11T21:31:03.855Z,7.97
2018-02-11T21:33:33.822Z,7.75
2018-02-11T21:36:03.660Z,7.30
2018-02-11T21:38:33.555Z,7.12
2018-02-11T21:41:04.200Z,7.05
2018-02-11T21:43:34.117Z,9.30
2018-02-11T21:46:04.002Z,7.15
2018-02-11T21:48:33.889Z,7.90
2018-02-11T21:51:04.516Z,7.87
2018-02-11T21:53:35.088Z,7.80
2018-02-11T21:56:04.978Z,7.87
2018-02-11T21:58:34.851Z,7.72
2018-02-11T22:01:04.719Z,8.35
2018-02-11T22:03:34.539Z,7.70
2018-02-11T22:06:04.427Z,7.78
2018-02-11T22:08:34.263Z,7.90
2018-02-11T22:11:04.219Z,8.30
2018-02-11T22:13:34.054Z,8.35
2018-02-11T22:16:04.606Z,8.35
2018-02-11T22:18:34.540Z,8.30
2018-02-11T22:21:05.063Z,8.20
2018-02-11T22:23:34.927Z,8.13
2018-02-11T22:26:05.198Z,8.60
2018-02-11T22:28:35.118Z,8.02
2018-02-11T22:31:05.095Z,8.40
2018-02-11T22:33:35.000Z,7.65
2018-02-11T22:36:04.472Z,8.10
2018-02-11T22:38:34.384Z,8.85
2018-02-11T22:41:04.222Z,7.60
2018-02-11T22:43:34.119Z,7.95
2018-02-11T22:46:03.968Z,9.57
2018-02-11T22:48:33.926Z,8.93
2018-02-11T22:51:03.826Z,8.10
2018-02-11T22:53:34.455Z,8.60
2018-02-11T22:56:05.179Z,8.30
2018-02-11T22:58:35.779Z,8.50
2018-02-11T23:01:05.636Z,7.78
2018-02-11T23:03:36.263Z,8.50
2018-02-11T23:06:06.875Z,8.95
2018-02-11T23:08:36.731Z,8.63
2018-02-11T23:11:06.599Z,8.77
2018-02-11T23:13:36.416Z,8.70
2018-02-11T23:16:06.287Z,9.00
2018-02-11T23:18:36.116Z,8.45
2018-02-11T23:21:06.390Z,10.35
2018-02-11T23:23:36.646Z,8.73
2018-02-11T23:26:06.527Z,9.23
2018-02-11T23:28:37.115Z,8.55
2018-02-11T23:31:06.984Z,9.75
2018-02-11T23:33:36.941Z,8.57
2018-02-11T23:36:06.878Z,9.10
2018-02-11T23:38:37.598Z,10.63
2018-02-11T23:41:07.467Z,9.63
2018-02-11T23:43:37.029Z,9.73
2018-02-11T23:46:06.903Z,9.25
2018-02-11T23:48:36.783Z,10.48
2018-02-11T23:51:07.444Z,10.50
2018-02-11T23:53:37.095Z,10.55
2018-02-11T23:56:06.928Z,9.85
2018-02-11T23:58:37.571Z,9.40
